createdAt,value
2016-10-19T00:00:45.305Z,13.6
2016-10-19T00:01:45.333Z,13.62
2016-10-19T00:02:45.348Z,13.53
2016-10-19T00:03:45.368Z,13.62
2016-10-19T00:04:45.379Z,13.67
2016-10-19T00:05:45.412Z,13.62
2016-10-19T00:06:45.412Z,13.59
2016-10-19T00:07:45.455Z,13.6
2016-10-19T00:08:45.457Z,13.57
2016-10-19T00:09:45.486Z,13.59
2016-10-19T00:10:45.492Z,13.59
2016-10-19T00:11:45.523Z,13.56
2016-10-19T00:12:45.542Z,13.52
2016-10-19T00:13:45.548Z,13.56
2016-10-19T00:14:45.581Z,13.54
2016-10-19T00:15:45.583Z,13.5
2016-10-19T00:16:45.611Z,13.6
2016-10-19T00:17:45.639Z,13.57
2016-10-19T00:18:45.646Z,13.49
2016-10-19T00:19:45.665Z,13.47
2016-10-19T00:20:45.679Z,13.54
2016-10-19T00:21:45.703Z,13.57
2016-10-19T00:22:45.723Z,13.5
2016-10-19T00:23:45.734Z,13.54
2016-10-19T00:24:45.759Z,13.47
2016-10-19T00:25:45.785Z,13.52
2016-10-19T00:26:45.806Z,13.56
2016-10-19T00:27:45.813Z,13.5
2016-10-19T00:28:45.843Z,13.53
2016-10-19T00:29:45.843Z,13.5
2016-10-19T00:30:45.880Z,13.37
2016-10-19T00:31:45.891Z,13.42
2016-10-19T00:32:45.911Z,13.47
2016-10-19T00:33:45.932Z,13.47
2016-10-19T00:34:45.951Z,13.42
2016-10-19T00:35:45.969Z,13.38
2016-10-19T00:36:46.012Z,13.44
2016-10-19T00:37:46.011Z,13.49
2016-10-19T00:38:46.016Z,13.49
2016-10-19T00:39:46.031Z,13.39
2016-10-19T00:40:46.054Z,13.41
2016-10-19T00:41:46.075Z,13.46
2016-10-19T00:42:46.154Z,13.42
2016-10-19T00:43:46.122Z,13.31
2016-10-19T00:44:46.136Z,13.38
2016-10-19T00:45:46.147Z,13.38
2016-10-19T00:46:46.178Z,13.42
2016-10-19T00:47:46.191Z,13.33
2016-10-19T00:48:46.213Z,13.31
2016-10-19T00:49:46.220Z,13.38
2016-10-19T00:50:46.250Z,13.37
2016-10-19T00:51:46.258Z,13.31
2016-10-19T00:52:46.319Z,13.35
2016-10-19T00:53:46.298Z,13.33
2016-10-19T00:54:46.326Z,13.38
2016-10-19T00:55:46.342Z,13.28
2016-10-19T00:56:46.371Z,13.33
2016-10-19T00:57:46.425Z,13.31
2016-10-19T00:58:46.405Z,13.33
2016-10-19T00:59:46.417Z,13.28
2016-10-19T01:00:46.428Z,13.27
2016-10-19T01:01:46.446Z,13.23
2016-10-19T01:02:46.467Z,13.28
2016-10-19T01:03:46.484Z,13.31
2016-10-19T01:04:46.501Z,13.35
2016-10-19T01:05:46.517Z,13.25
2016-10-19T01:06:46.542Z,13.25
2016-10-19T01:07:46.566Z,13.23
2016-10-19T01:08:46.577Z,13.23
2016-10-19T01:09:46.627Z,13.25
2016-10-19T01:10:46.618Z,13.33
2016-10-19T01:11:46.629Z,13.25
2016-10-19T01:12:46.969Z,13.23
2016-10-19T01:13:46.671Z,13.18
2016-10-19T01:14:46.688Z,13.25
2016-10-19T01:15:46.704Z,13.2
2016-10-19T01:16:46.730Z,13.22
2016-10-19T01:17:46.748Z,13.22
2016-10-19T01:18:46.766Z,13.19
2016-10-19T01:19:46.781Z,13.22
2016-10-19T01:20:46.801Z,13.2
2016-10-19T01:21:46.818Z,13.16
2016-10-19T01:22:46.841Z,13.2
2016-10-19T01:23:46.856Z,13.2
2016-10-19T01:24:46.921Z,13.22
2016-10-19T01:25:46.898Z,13.28
2016-10-19T01:26:46.915Z,13.22
2016-10-19T01:27:46.935Z,13.16
2016-10-19T01:28:46.952Z,13.18
2016-10-19T01:29:46.968Z,13.19
2016-10-19T01:30:47.022Z,13.16
2016-10-19T01:31:47.005Z,13.16
2016-10-19T01:32:47.032Z,13.16
2016-10-19T01:33:47.044Z,13.19
2016-10-19T01:34:47.062Z,13.19
2016-10-19T01:35:47.083Z,13.2
2016-10-19T01:36:47.100Z,13.19
2016-10-19T01:37:47.118Z,13.23
2016-10-19T01:38:47.134Z,13.16
2016-10-19T01:39:47.159Z,13.2
2016-10-19T01:40:47.175Z,13.18
2016-10-19T01:41:47.194Z,13.2
2016-10-19T01:42:47.217Z,13.23
2016-10-19T01:43:47.229Z,13.16
2016-10-19T01:44:47.255Z,13.16
2016-10-19T01:45:47.265Z,13.2
2016-10-19T01:46:47.283Z,13.11
2016-10-19T01:47:47.618Z,13.25
2016-10-19T01:48:47.327Z,13.18
2016-10-19T01:49:47.343Z,13.18
2016-10-19T01:50:47.365Z,13.23
2016-10-19T01:51:47.388Z,13.13
2016-10-19T01:52:47.401Z,13.18
2016-10-19T01:53:47.418Z,13.25
2016-10-19T01:54:47.438Z,13.23
2016-10-19T01:55:47.491Z,13.19
2016-10-19T01:56:47.473Z,13.23
2016-10-19T01:57:47.493Z,13.23
2016-10-19T01:58:47.510Z,13.13
2016-10-19T01:59:47.533Z,13.2
2016-10-19T02:00:47.543Z,13.13
2016-10-19T02:01:47.567Z,13.16
2016-10-19T02:02:47.620Z,13.12
2016-10-19T02:03:47.600Z,13.18
2016-10-19T02:04:47.623Z,13.12
2016-10-19T02:05:47.641Z,13.15
2016-10-19T02:06:47.665Z,13.13
2016-10-19T02:07:47.678Z,13.15
2016-10-19T02:08:47.696Z,13.16
2016-10-19T02:09:47.719Z,13.18
2016-10-19T02:10:47.733Z,13.19
2016-10-19T02:11:47.748Z,13.23
2016-10-19T02:12:47.820Z,13.15
2016-10-19T02:13:47.787Z,13.15
2016-10-19T02:14:47.806Z,13.22
2016-10-19T02:15:47.819Z,13.16
2016-10-19T02:16:47.844Z,13.16
2016-10-19T02:17:47.861Z,13.16
2016-10-19T02:18:47.880Z,13.18
2016-10-19T02:19:47.896Z,13.16
2016-10-19T02:20:47.919Z,13.15
2016-10-19T02:21:47.936Z,13.15
2016-10-19T02:22:47.957Z,13.15
2016-10-19T02:23:47.985Z,13.18
2016-10-19T02:24:47.999Z,13.18
2016-10-19T02:25:48.011Z,13.16
2016-10-19T02:26:48.028Z,13.19
2016-10-19T02:27:48.049Z,13.16
2016-10-19T02:28:48.075Z,13.18
2016-10-19T02:29:48.086Z,13.18
2016-10-19T02:30:48.105Z,13.19
2016-10-19T02:31:48.120Z,13.16
2016-10-19T02:32:48.142Z,13.19
2016-10-19T02:33:48.155Z,13.16
2016-10-19T02:34:48.188Z,13.19
2016-10-19T02:35:48.205Z,13.13
2016-10-19T02:36:48.253Z,13.18
2016-10-19T02:37:48.232Z,13.13
2016-10-19T02:38:48.285Z,13.19
2016-10-19T02:39:48.272Z,13.18
2016-10-19T02:40:48.292Z,13.12
2016-10-19T02:41:48.308Z,13.04
2016-10-19T02:42:48.327Z,13.13
2016-10-19T02:43:48.376Z,13.19
2016-10-19T02:44:48.368Z,13.19
2016-10-19T02:45:48.383Z,13.04
2016-10-19T02:46:48.404Z,13.04
2016-10-19T02:47:48.419Z,13.11
2016-10-19T02:48:48.443Z,13.09
2016-10-19T02:49:48.460Z,13.16
2016-10-19T02:50:48.476Z,13.22
2016-10-19T02:51:48.540Z,13.19
2016-10-19T02:52:48.520Z,13.08
2016-10-19T02:53:48.530Z,13.09
2016-10-19T02:54:48.551Z,13.16
2016-10-19T02:55:48.572Z,13.2
2016-10-19T02:56:48.590Z,13.19
2016-10-19T02:57:48.607Z,13.12
2016-10-19T02:58:48.624Z,13.11
2016-10-19T02:59:48.644Z,13.12
2016-10-19T03:00:48.662Z,13.16
2016-10-19T03:01:48.686Z,13.16
2016-10-19T03:02:48.699Z,13.09
2016-10-19T03:03:48.721Z,13.04
2016-10-19T03:04:48.740Z,13.04
2016-10-19T03:05:48.753Z,13.15
2016-10-19T03:06:48.818Z,13.08
2016-10-19T03:07:48.789Z,13.13
2016-10-19T03:08:48.809Z,13.15
2016-10-19T03:09:48.836Z,13.15
2016-10-19T03:10:48.936Z,13.19
2016-10-19T03:11:48.871Z,13.05
2016-10-19T03:12:48.921Z,13.18
2016-10-19T03:13:48.900Z,13.04
2016-10-19T03:14:49.034Z,13.03
2016-10-19T03:15:48.942Z,13.13
2016-10-19T03:16:48.959Z,13.18
2016-10-19T03:17:48.977Z,13.19
2016-10-19T03:18:49.112Z,13.19
2016-10-19T03:19:49.125Z,13.18
2016-10-19T03:20:49.031Z,13.05
2016-10-19T03:21:49.049Z,13.04
2016-10-19T03:22:49.068Z,13.18
2016-10-19T03:23:49.090Z,13.04
2016-10-19T03:24:49.111Z,13.03
2016-10-19T03:25:49.437Z,13.11
2016-10-19T03:26:49.147Z,13.11
2016-10-19T03:27:49.203Z,13.05
2016-10-19T03:28:49.186Z,13.15
2016-10-19T03:29:49.210Z,13.08
2016-10-19T03:30:49.223Z,13.05
2016-10-19T03:31:49.238Z,13.09
2016-10-19T03:32:49.256Z,13.19
2016-10-19T03:33:49.275Z,13.08
2016-10-19T03:34:49.293Z,13.03
2016-10-19T03:35:49.310Z,13.11
2016-10-19T03:36:49.329Z,13.04
2016-10-19T03:37:49.350Z,13.03
2016-10-19T03:38:49.379Z,13.01
2016-10-19T03:39:49.702Z,13
2016-10-19T03:40:49.406Z,13.11
2016-10-19T03:41:49.425Z,13.04
2016-10-19T03:42:49.443Z,13.11
2016-10-19T03:43:49.482Z,13
2016-10-19T03:44:49.479Z,13.08
2016-10-19T03:45:49.494Z,13.03
2016-10-19T03:46:49.516Z,13.01
2016-10-19T03:47:49.533Z,13.11
2016-10-19T03:48:49.552Z,13.04
2016-10-19T03:49:49.574Z,13.08
2016-10-19T03:50:49.592Z,13.09
2016-10-19T03:51:49.610Z,13.05
2016-10-19T03:52:49.623Z,13.05
2016-10-19T03:53:49.645Z,13.13
2016-10-19T03:54:49.667Z,13.05
2016-10-19T03:55:49.680Z,13.11
2016-10-19T03:56:49.698Z,13
2016-10-19T03:57:49.719Z,12.98
2016-10-19T03:58:49.743Z,13.04
2016-10-19T03:59:50.171Z,13.05
2016-10-19T04:00:49.882Z,13.05
2016-10-19T04:01:49.947Z,13
2016-10-19T04:02:49.988Z,13
2016-10-19T04:03:49.920Z,13.03
2016-10-19T04:04:49.961Z,13.04
2016-10-19T04:05:49.999Z,12.95
2016-10-19T04:06:49.892Z,12.98
2016-10-19T04:07:49.905Z,13
2016-10-19T04:08:49.928Z,13.01
2016-10-19T04:09:49.940Z,13.01
2016-10-19T04:10:49.964Z,12.95
2016-10-19T04:11:49.982Z,13.04
2016-10-19T04:12:50.004Z,13.03
2016-10-19T04:13:50.021Z,12.95
2016-10-19T04:14:50.037Z,13.01
2016-10-19T04:15:50.053Z,13.04
2016-10-19T04:16:50.072Z,12.98
2016-10-19T04:17:50.095Z,12.98
2016-10-19T04:18:50.109Z,12.98
2016-10-19T04:19:50.124Z,12.95
2016-10-19T04:20:50.143Z,13
2016-10-19T04:21:50.281Z,13.01
2016-10-19T04:22:50.385Z,13
2016-10-19T04:23:50.313Z,13
2016-10-19T04:24:50.428Z,13.04
2016-10-19T04:25:50.441Z,13
2016-10-19T04:26:50.441Z,13.05
2016-10-19T04:27:50.489Z,13.01
2016-10-19T04:28:50.493Z,12.94
2016-10-19T04:29:50.567Z,13.03
2016-10-19T04:30:50.505Z,13.01
2016-10-19T04:31:50.511Z,13.01
2016-10-19T04:32:50.560Z,13.05
2016-10-19T04:33:50.531Z,12.93
2016-10-19T04:34:50.539Z,12.95
2016-10-19T04:35:50.540Z,12.93
2016-10-19T04:36:50.546Z,12.97
2016-10-19T04:37:50.628Z,12.98
2016-10-19T04:38:50.568Z,12.98
2016-10-19T04:39:50.634Z,13
2016-10-19T04:40:50.515Z,12.95
2016-10-19T04:41:50.533Z,12.97
2016-10-19T04:42:50.550Z,12.9
2016-10-19T04:43:50.571Z,12.9
2016-10-19T04:44:50.589Z,12.9
2016-10-19T04:45:50.643Z,12.91
2016-10-19T04:46:50.629Z,12.87
2016-10-19T04:47:50.642Z,12.93
2016-10-19T04:48:50.661Z,12.93
2016-10-19T04:49:50.791Z,12.94
2016-10-19T04:50:50.737Z,12.93
2016-10-19T04:51:50.719Z,12.83
2016-10-19T04:52:50.737Z,12.94
2016-10-19T04:53:50.753Z,12.86
2016-10-19T04:54:50.886Z,12.91
2016-10-19T04:55:51.106Z,12.8
2016-10-19T04:56:50.808Z,12.9
2016-10-19T04:57:51.021Z,12.87
2016-10-19T04:58:50.848Z,12.9
2016-10-19T04:59:50.976Z,12.85
2016-10-19T05:00:50.994Z,12.82
2016-10-19T05:01:50.943Z,12.78
2016-10-19T05:02:50.916Z,12.85
2016-10-19T05:03:51.053Z,12.85
2016-10-19T05:04:50.956Z,12.79
2016-10-19T05:05:50.975Z,12.83
2016-10-19T05:06:50.993Z,12.78
2016-10-19T05:07:51.030Z,12.78
2016-10-19T05:08:51.027Z,12.78
2016-10-19T05:09:51.193Z,12.83
2016-10-19T05:10:51.066Z,12.78
2016-10-19T05:11:51.080Z,12.76
2016-10-19T05:12:51.101Z,12.76
2016-10-19T05:13:51.120Z,12.8
2016-10-19T05:14:51.139Z,12.8
2016-10-19T05:15:51.169Z,12.79
2016-10-19T05:16:51.175Z,12.73
2016-10-19T05:17:51.190Z,12.75
2016-10-19T05:18:51.213Z,12.72
2016-10-19T05:19:51.229Z,12.67
2016-10-19T05:20:51.249Z,12.75
2016-10-19T05:21:51.267Z,12.62
2016-10-19T05:22:51.393Z,12.62
2016-10-19T05:23:51.301Z,12.62
2016-10-19T05:24:51.328Z,12.7
2016-10-19T05:25:51.364Z,12.67
2016-10-19T05:26:51.465Z,12.65
2016-10-19T05:27:51.375Z,12.65
2016-10-19T05:28:51.394Z,12.68
2016-10-19T05:29:51.412Z,12.65
2016-10-19T05:30:51.431Z,12.76
2016-10-19T05:31:51.446Z,12.7
2016-10-19T05:32:51.466Z,12.61
2016-10-19T05:33:51.485Z,12.65
2016-10-19T05:34:51.504Z,12.72
2016-10-19T05:35:51.521Z,12.7
2016-10-19T05:36:51.541Z,12.61
2016-10-19T05:37:51.559Z,12.65
2016-10-19T05:38:51.577Z,12.65
2016-10-19T05:39:51.603Z,12.7
2016-10-19T05:40:51.727Z,12.64
2016-10-19T05:41:51.813Z,12.64
2016-10-19T05:42:51.651Z,12.65
2016-10-19T05:43:51.719Z,12.65
2016-10-19T05:44:51.690Z,12.64
2016-10-19T05:45:51.704Z,12.65
2016-10-19T05:46:51.721Z,12.64
2016-10-19T05:47:51.743Z,12.65
2016-10-19T05:48:51.760Z,12.62
2016-10-19T05:49:51.779Z,12.64
2016-10-19T05:50:51.947Z,12.68
2016-10-19T05:51:51.811Z,12.65
2016-10-19T05:52:51.829Z,12.62
2016-10-19T05:53:51.985Z,12.62
2016-10-19T05:54:51.953Z,12.67
2016-10-19T05:55:51.982Z,12.68
2016-10-19T05:56:52.093Z,12.65
2016-10-19T05:57:52.010Z,12.64
2016-10-19T05:58:52.115Z,12.54
2016-10-19T05:59:52.107Z,12.54
2016-10-19T06:00:52.116Z,12.57
2016-10-19T06:01:52.125Z,12.65
2016-10-19T06:02:52.134Z,12.54
2016-10-19T06:03:52.132Z,12.54
2016-10-19T06:04:52.140Z,12.47
2016-10-19T06:05:52.150Z,12.5
2016-10-19T06:06:52.292Z,12.58
2016-10-19T06:07:52.301Z,12.53
2016-10-19T06:08:52.306Z,12.57
2016-10-19T06:09:52.215Z,12.54
2016-10-19T06:10:52.224Z,12.54
2016-10-19T06:11:52.275Z,12.64
2016-10-19T06:12:52.273Z,12.58
2016-10-19T06:13:52.284Z,12.57
2016-10-19T06:14:52.322Z,12.57
2016-10-19T06:15:52.325Z,12.57
2016-10-19T06:16:52.337Z,12.53
2016-10-19T06:17:52.332Z,12.49
2016-10-19T06:18:52.341Z,12.6
2016-10-19T06:19:52.349Z,12.53
2016-10-19T06:20:52.396Z,12.5
2016-10-19T06:21:52.366Z,12.57
2016-10-19T06:22:52.691Z,12.57
2016-10-19T06:23:52.392Z,12.5
2016-10-19T06:24:52.412Z,12.55
2016-10-19T06:25:52.429Z,12.5
2016-10-19T06:26:52.445Z,12.46
2016-10-19T06:27:52.469Z,12.54
2016-10-19T06:28:52.485Z,12.54
2016-10-19T06:29:52.503Z,12.55
2016-10-19T06:30:52.523Z,12.54
2016-10-19T06:31:52.856Z,12.49
2016-10-19T06:32:52.556Z,12.5
2016-10-19T06:33:52.756Z,12.55
2016-10-19T06:34:52.590Z,12.53
2016-10-19T06:35:52.617Z,12.55
2016-10-19T06:36:52.629Z,12.49
2016-10-19T06:37:52.646Z,12.57
2016-10-19T06:38:52.665Z,12.6
2016-10-19T06:39:52.686Z,12.5
2016-10-19T06:40:52.706Z,12.55
2016-10-19T06:41:52.723Z,12.49
2016-10-19T06:42:52.735Z,12.47
2016-10-19T06:43:52.755Z,12.49
2016-10-19T06:44:52.777Z,12.49
2016-10-19T06:45:52.790Z,12.53
2016-10-19T06:46:52.844Z,12.47
2016-10-19T06:47:52.832Z,12.5
2016-10-19T06:48:52.845Z,12.55
2016-10-19T06:49:52.861Z,12.47
2016-10-19T06:50:52.880Z,12.54
2016-10-19T06:51:52.903Z,12.53
2016-10-19T06:52:52.923Z,12.5
2016-10-19T06:53:52.934Z,12.55
2016-10-19T06:54:52.952Z,12.49
2016-10-19T06:55:52.969Z,12.49
2016-10-19T06:56:52.988Z,12.53
2016-10-19T06:57:53.008Z,12.46
2016-10-19T06:58:53.026Z,12.5
2016-10-19T06:59:53.043Z,12.55
2016-10-19T07:00:53.060Z,12.54
2016-10-19T07:01:53.081Z,12.53
2016-10-19T07:02:53.104Z,12.53
2016-10-19T07:03:53.114Z,12.49
2016-10-19T07:04:53.135Z,12.53
2016-10-19T07:05:53.159Z,12.49
2016-10-19T07:06:53.172Z,12.49
2016-10-19T07:07:53.185Z,12.5
2016-10-19T07:08:53.206Z,12.45
2016-10-19T07:09:53.227Z,12.57
2016-10-19T07:10:53.243Z,12.54
2016-10-19T07:11:53.262Z,12.47
2016-10-19T07:12:53.285Z,12.54
2016-10-19T07:13:53.297Z,12.5
2016-10-19T07:14:53.328Z,12.54
2016-10-19T07:15:53.338Z,12.53
2016-10-19T07:16:53.355Z,12.5
2016-10-19T07:17:53.369Z,12.6
2016-10-19T07:18:53.388Z,12.53
2016-10-19T07:19:53.407Z,12.5
2016-10-19T07:20:53.542Z,12.57
2016-10-19T07:21:53.672Z,12.62
2016-10-19T07:22:53.459Z,12.55
2016-10-19T07:23:53.478Z,12.54
2016-10-19T07:24:53.493Z,12.57
2016-10-19T07:25:53.515Z,12.5
2016-10-19T07:26:53.531Z,12.68
2016-10-19T07:27:53.553Z,12.54
2016-10-19T07:28:53.566Z,12.57
2016-10-19T07:29:53.587Z,12.62
2016-10-19T07:30:53.609Z,12.5
2016-10-19T07:31:53.627Z,12.57
2016-10-19T07:32:53.684Z,12.55
2016-10-19T07:33:53.662Z,12.57
2016-10-19T07:34:53.682Z,12.57
2016-10-19T07:35:53.695Z,12.5
2016-10-19T07:36:53.719Z,12.55
2016-10-19T07:37:53.734Z,12.55
2016-10-19T07:38:53.896Z,12.54
2016-10-19T07:39:53.767Z,12.53
2016-10-19T07:40:53.785Z,12.5
2016-10-19T07:41:53.807Z,12.45
2016-10-19T07:42:53.829Z,12.45
2016-10-19T07:43:53.840Z,12.43
2016-10-19T07:44:53.855Z,12.5
2016-10-19T07:45:53.885Z,12.37
2016-10-19T07:46:53.897Z,12.49
2016-10-19T07:47:54.024Z,12.42
2016-10-19T07:48:53.931Z,12.47
2016-10-19T07:49:54.066Z,12.42
2016-10-19T07:50:53.971Z,12.45
2016-10-19T07:51:54.122Z,12.45
2016-10-19T07:52:54.001Z,12.45
2016-10-19T07:53:54.141Z,12.45
2016-10-19T07:54:54.149Z,12.45
2016-10-19T07:55:54.060Z,12.32
2016-10-19T07:56:54.071Z,12.39
2016-10-19T07:57:54.234Z,12.29
2016-10-19T07:58:54.108Z,12.31
2016-10-19T07:59:54.235Z,12.36
2016-10-19T08:00:54.148Z,12.37
2016-10-19T08:01:54.168Z,12.47
2016-10-19T08:02:54.219Z,12.31
2016-10-19T08:03:54.197Z,12.46
2016-10-19T08:04:54.311Z,12.39
2016-10-19T08:05:54.239Z,12.43
2016-10-19T08:06:54.257Z,12.43
2016-10-19T08:07:54.275Z,12.37
2016-10-19T08:08:54.307Z,12.37
2016-10-19T08:09:54.313Z,12.39
2016-10-19T08:10:54.441Z,12.39
2016-10-19T08:11:54.344Z,12.37
2016-10-19T08:12:54.390Z,12.45
2016-10-19T08:13:54.376Z,12.46
2016-10-19T08:14:54.493Z,12.45
2016-10-19T08:15:54.523Z,12.47
2016-10-19T08:16:54.495Z,12.4
2016-10-19T08:17:54.613Z,12.43
2016-10-19T08:18:54.555Z,12.47
2016-10-19T08:19:54.519Z,12.39
2016-10-19T08:20:54.509Z,12.47
2016-10-19T08:21:54.631Z,12.55
2016-10-19T08:22:54.542Z,12.5
2016-10-19T08:23:54.593Z,12.57
2016-10-19T08:24:54.578Z,12.61
2016-10-19T08:25:54.930Z,12.61
2016-10-19T08:26:54.665Z,12.67
2016-10-19T08:27:54.628Z,12.67
2016-10-19T08:28:54.647Z,12.62
2016-10-19T08:29:54.760Z,12.78
2016-10-19T08:30:54.802Z,12.75
2016-10-19T08:31:54.707Z,12.83
2016-10-19T08:32:54.715Z,12.83
2016-10-19T08:33:54.737Z,12.87
2016-10-19T08:34:54.753Z,12.93
2016-10-19T08:35:54.804Z,13.03
2016-10-19T08:36:54.789Z,13
2016-10-19T08:37:54.812Z,13
2016-10-19T08:38:54.829Z,13.09
2016-10-19T08:39:54.843Z,13.05
2016-10-19T08:40:54.866Z,13.03
2016-10-19T08:41:54.881Z,13.01
2016-10-19T08:42:54.896Z,13.15
2016-10-19T08:43:54.920Z,13.12
2016-10-19T08:44:54.935Z,13.13
2016-10-19T08:45:54.958Z,13.19
2016-10-19T08:46:54.969Z,13.13
2016-10-19T08:47:55.316Z,13.15
2016-10-19T08:48:55.015Z,13.19
2016-10-19T08:49:55.026Z,13.2
2016-10-19T08:50:55.045Z,13.23
2016-10-19T08:51:55.060Z,13.23
2016-10-19T08:52:55.079Z,13.18
2016-10-19T08:53:55.098Z,13.2
2016-10-19T08:54:55.152Z,13.22
2016-10-19T08:55:55.137Z,13.27
2016-10-19T08:56:55.156Z,13.33
2016-10-19T08:57:55.204Z,13.38
2016-10-19T08:58:55.188Z,13.38
2016-10-19T08:59:55.205Z,13.33
2016-10-19T09:00:55.267Z,13.33
2016-10-19T09:01:55.245Z,13.31
2016-10-19T09:02:55.265Z,13.3
2016-10-19T09:03:55.278Z,13.2
2016-10-19T09:04:55.295Z,13.35
2016-10-19T09:05:55.320Z,13.35
2016-10-19T09:06:55.333Z,13.31
2016-10-19T09:07:55.352Z,13.38
2016-10-19T09:08:55.374Z,13.33
2016-10-19T09:09:55.390Z,13.3
2016-10-19T09:10:55.402Z,13.46
2016-10-19T09:11:55.424Z,13.41
2016-10-19T09:12:55.438Z,13.46
2016-10-19T09:13:55.457Z,13.42
2016-10-19T09:14:55.593Z,13.52
2016-10-19T09:15:55.494Z,13.59
2016-10-19T09:16:55.514Z,13.53
2016-10-19T09:17:55.534Z,13.67
2016-10-19T09:18:55.547Z,13.56
2016-10-19T09:19:55.678Z,13.59
2016-10-19T09:20:55.588Z,13.65
2016-10-19T09:21:55.603Z,13.65
2016-10-19T09:22:55.621Z,13.71
2016-10-19T09:23:55.749Z,13.67
2016-10-19T09:24:55.656Z,13.67
2016-10-19T09:25:55.683Z,13.62
2016-10-19T09:26:56.126Z,13.7
2016-10-19T09:27:55.713Z,13.7
2016-10-19T09:28:55.741Z,13.68
2016-10-19T09:29:55.863Z,13.71
2016-10-19T09:30:55.768Z,13.7
2016-10-19T09:31:55.790Z,13.75
2016-10-19T09:32:55.806Z,13.79
2016-10-19T09:33:55.821Z,13.83
2016-10-19T09:34:55.843Z,13.81
2016-10-19T09:35:55.924Z,13.79
2016-10-19T09:36:56.323Z,13.74
2016-10-19T09:37:55.899Z,13.9
2016-10-19T09:38:55.916Z,13.97
2016-10-19T09:39:55.933Z,13.97
2016-10-19T09:40:55.954Z,13.95
2016-10-19T09:41:55.973Z,13.97
2016-10-19T09:42:55.995Z,13.9
2016-10-19T09:43:56.007Z,13.95
2016-10-19T09:44:56.067Z,13.99
2016-10-19T09:45:56.180Z,13.96
2016-10-19T09:46:56.065Z,14.05
2016-10-19T09:47:56.195Z,14.03
2016-10-19T09:48:56.102Z,13.99
2016-10-19T09:49:56.121Z,14
2016-10-19T09:50:56.138Z,14.04
2016-10-19T09:51:56.266Z,14.04
2016-10-19T09:52:56.247Z,13.95
2016-10-19T09:53:56.191Z,14
2016-10-19T09:54:56.292Z,13.9
2016-10-19T09:55:56.233Z,14
2016-10-19T09:56:56.363Z,13.96
2016-10-19T09:57:56.264Z,13.93
2016-10-19T09:58:56.285Z,13.9
2016-10-19T09:59:56.305Z,13.93
2016-10-19T10:00:56.320Z,13.89
2016-10-19T10:01:56.344Z,13.93
2016-10-19T10:02:56.371Z,13.93
2016-10-19T10:03:56.382Z,13.85
2016-10-19T10:04:56.396Z,13.87
2016-10-19T10:05:56.420Z,13.85
2016-10-19T10:06:56.440Z,13.9
2016-10-19T10:07:56.493Z,13.87
2016-10-19T10:08:56.475Z,13.9
2016-10-19T10:09:56.491Z,13.87
2016-10-19T10:10:56.510Z,13.93
2016-10-19T10:11:56.538Z,13.89
2016-10-19T10:12:56.545Z,13.85
2016-10-19T10:13:56.628Z,13.92
2016-10-19T10:14:56.617Z,13.92
2016-10-19T10:15:56.674Z,13.92
2016-10-19T10:16:56.620Z,13.99
2016-10-19T10:17:56.758Z,13.96
2016-10-19T10:18:56.730Z,13.97
2016-10-19T10:19:56.677Z,13.97
2016-10-19T10:20:56.740Z,13.9
2016-10-19T10:21:56.712Z,13.95
2016-10-19T10:22:56.775Z,14.04
2016-10-19T10:23:56.756Z,14.04
2016-10-19T10:24:56.773Z,13.99
2016-10-19T10:25:56.788Z,14
2016-10-19T10:26:56.817Z,14
2016-10-19T10:27:57.025Z,14.07
2016-10-19T10:28:56.847Z,14.05
2016-10-19T10:29:56.900Z,14.1
2016-10-19T10:30:56.970Z,14.12
2016-10-19T10:31:56.901Z,14.12
2016-10-19T10:32:56.917Z,14.12
2016-10-19T10:33:56.941Z,14.15
2016-10-19T10:34:56.962Z,14.22
2016-10-19T10:35:56.977Z,14.12
2016-10-19T10:36:57.108Z,14.15
2016-10-19T10:37:57.013Z,14.2
2016-10-19T10:38:57.029Z,14.18
2016-10-19T10:39:57.049Z,14.35
2016-10-19T10:40:57.078Z,14.4
2016-10-19T10:41:57.087Z,14.45
2016-10-19T10:42:57.112Z,14.47
2016-10-19T10:43:57.129Z,14.51
2016-10-19T10:44:57.145Z,14.51
2016-10-19T10:45:57.216Z,14.54
2016-10-19T10:46:57.226Z,14.6
2016-10-19T10:47:57.207Z,14.66
2016-10-19T10:48:57.304Z,14.72
2016-10-19T10:49:57.237Z,14.73
2016-10-19T10:50:57.260Z,14.69
2016-10-19T10:51:57.277Z,14.79
2016-10-19T10:52:57.298Z,14.77
2016-10-19T10:53:57.315Z,14.73
2016-10-19T10:54:57.333Z,14.84
2016-10-19T10:55:57.356Z,14.77
2016-10-19T10:56:57.367Z,14.84
2016-10-19T10:57:57.393Z,14.79
2016-10-19T10:58:57.407Z,14.84
2016-10-19T10:59:57.546Z,14.85
2016-10-19T11:00:57.559Z,14.85
2016-10-19T11:01:57.706Z,14.94
2016-10-19T11:02:57.568Z,14.96
2016-10-19T11:03:57.616Z,15
2016-10-19T11:04:57.751Z,14.92
2016-10-19T11:05:57.762Z,14.99
2016-10-19T11:06:57.768Z,15.02
2016-10-19T11:07:57.783Z,15.04
2016-10-19T11:08:57.782Z,15.15
2016-10-19T11:09:57.746Z,15.19
2016-10-19T11:10:57.833Z,15.11
2016-10-19T11:11:57.843Z,15.11
2016-10-19T11:12:57.677Z,15.19
2016-10-19T11:13:57.700Z,15.22
2016-10-19T11:14:57.715Z,15.29
2016-10-19T11:15:57.736Z,15.33
2016-10-19T11:16:57.753Z,15.37
2016-10-19T11:17:57.776Z,15.39
2016-10-19T11:18:57.791Z,15.47
2016-10-19T11:19:57.809Z,15.49
2016-10-19T11:20:57.831Z,15.51
2016-10-19T11:21:57.856Z,15.46
2016-10-19T11:22:57.867Z,15.62
2016-10-19T11:23:58.204Z,15.64
2016-10-19T11:24:57.908Z,15.59
2016-10-19T11:25:57.933Z,15.62
2016-10-19T11:26:57.950Z,15.68
2016-10-19T11:27:57.965Z,15.68
2016-10-19T11:28:57.985Z,15.67
2016-10-19T11:29:58.009Z,15.72
2016-10-19T11:30:58.027Z,15.75
2016-10-19T11:31:58.042Z,15.7
2016-10-19T11:32:58.071Z,15.8
2016-10-19T11:33:58.085Z,15.8
2016-10-19T11:34:58.104Z,15.83
2016-10-19T11:35:58.133Z,15.79
2016-10-19T11:36:58.143Z,15.84
2016-10-19T11:37:58.162Z,15.94
2016-10-19T11:38:58.184Z,15.94
2016-10-19T11:39:58.201Z,15.91
2016-10-19T11:40:58.226Z,15.91
2016-10-19T11:41:58.243Z,15.86
2016-10-19T11:42:58.261Z,15.92
2016-10-19T11:43:58.277Z,15.95
2016-10-19T11:44:58.295Z,15.97
2016-10-19T11:45:58.321Z,16
2016-10-19T11:46:58.343Z,15.95
2016-10-19T11:47:58.359Z,16.02
2016-10-19T11:48:58.491Z,15.94
2016-10-19T11:49:58.503Z,16
2016-10-19T11:50:58.505Z,16.01
2016-10-19T11:51:58.522Z,16
2016-10-19T11:52:58.544Z,16
2016-10-19T11:53:58.705Z,16
2016-10-19T11:54:58.712Z,16.01
2016-10-19T11:55:58.722Z,16.01
2016-10-19T11:56:58.736Z,15.97
2016-10-19T11:57:58.735Z,16.01
2016-10-19T11:58:58.779Z,16.08
2016-10-19T11:59:58.788Z,16.08
2016-10-19T12:00:58.796Z,16.09
2016-10-19T12:01:58.801Z,16.08
2016-10-19T12:02:58.808Z,16.1
2016-10-19T12:03:58.817Z,16.13
2016-10-19T12:04:58.827Z,16.16
2016-10-19T12:05:58.833Z,16.13
2016-10-19T12:06:58.835Z,16.2
2016-10-19T12:07:58.843Z,16.24
2016-10-19T12:08:58.850Z,16.26
2016-10-19T12:09:58.859Z,16.29
2016-10-19T12:10:58.909Z,16.33
2016-10-19T12:11:58.836Z,16.35
2016-10-19T12:12:58.857Z,16.36
2016-10-19T12:13:58.866Z,16.33
2016-10-19T12:14:58.883Z,16.36
2016-10-19T12:15:58.912Z,16.43
2016-10-19T12:16:58.935Z,16.39
2016-10-19T12:17:58.945Z,16.36
2016-10-19T12:18:59.005Z,16.36
2016-10-19T12:19:58.987Z,16.42
2016-10-19T12:20:59.008Z,16.47
2016-10-19T12:21:59.031Z,16.43
2016-10-19T12:22:59.049Z,16.49
2016-10-19T12:23:59.080Z,16.57
2016-10-19T12:24:59.087Z,16.54
2016-10-19T12:25:59.107Z,16.49
2016-10-19T12:26:59.130Z,16.6
2016-10-19T12:27:59.457Z,16.54
2016-10-19T12:28:59.165Z,16.64
2016-10-19T12:29:59.187Z,16.66
2016-10-19T12:30:59.205Z,16.64
2016-10-19T12:31:59.224Z,16.61
2016-10-19T12:32:59.247Z,16.71
2016-10-19T12:33:59.267Z,16.76
2016-10-19T12:34:59.291Z,16.75
2016-10-19T12:35:59.306Z,16.81
2016-10-19T12:36:59.325Z,16.83
2016-10-19T12:37:59.361Z,16.83
2016-10-19T12:38:59.370Z,16.81
2016-10-19T12:39:59.391Z,16.81
2016-10-19T12:40:59.413Z,16.84
2016-10-19T12:41:59.426Z,16.79
2016-10-19T12:42:59.454Z,16.81
2016-10-19T12:43:59.468Z,16.74
2016-10-19T12:44:59.489Z,16.79
2016-10-19T12:45:59.510Z,16.79
2016-10-19T12:46:59.532Z,16.89
2016-10-19T12:47:59.551Z,16.91
2016-10-19T12:48:59.572Z,16.87
2016-10-19T12:49:59.595Z,16.87
2016-10-19T12:50:59.611Z,16.87
2016-10-19T12:51:59.631Z,16.91
2016-10-19T12:52:59.658Z,16.94
2016-10-19T12:53:59.672Z,16.86
2016-10-19T12:54:59.691Z,16.87
2016-10-19T12:55:59.888Z,16.89
2016-10-19T12:56:59.733Z,16.9
2016-10-19T12:57:59.759Z,16.89